createdAt,value
2022-09-30T00:01:17.330Z,5.50
2022-09-30T00:03:45.170Z,5.40
2022-09-30T00:06:13.064Z,5.64
2022-09-30T00:08:40.985Z,5.56
2022-09-30T00:11:13.585Z,5.55
2022-09-30T00:13:41.887Z,5.73
2022-09-30T00:16:11.321Z,5.59
2022-09-30T00:18:39.945Z,5.99
2022-09-30T00:21:08.486Z,6.09
2022-09-30T00:23:37.973Z,5.86
2022-09-30T00:26:09.470Z,5.79
2022-09-30T00:28:41.009Z,6.05
2022-09-30T00:31:13.014Z,6.22
2022-09-30T00:33:41.307Z,6.19
2022-09-30T00:36:09.407Z,6.19
2022-09-30T00:38:37.417Z,6.19
2022-09-30T00:41:05.346Z,5.91
2022-09-30T00:43:43.486Z,5.68
2022-09-30T00:46:20.370Z,5.47
2022-09-30T00:48:53.914Z,5.79
2022-09-30T00:51:28.478Z,5.88
2022-09-30T00:53:59.045Z,5.60
2022-09-30T00:56:30.645Z,5.41
2022-09-30T00:59:04.641Z,5.35
2022-09-30T01:01:32.813Z,5.68
2022-09-30T01:04:04.159Z,6.17
2022-09-30T01:06:32.194Z,6.28
2022-09-30T01:09:00.140Z,6.04
2022-09-30T01:11:28.549Z,5.93
2022-09-30T01:14:02.737Z,5.88
2022-09-30T01:16:45.012Z,5.85
2022-09-30T01:19:28.427Z,6.04
2022-09-30T01:22:06.743Z,5.76
2022-09-30T01:24:56.344Z,5.82
2022-09-30T01:27:35.021Z,5.38
2022-09-30T01:30:10.378Z,5.15
2022-09-30T01:33:05.156Z,5.48
2022-09-30T01:35:44.574Z,5.85
2022-09-30T01:38:18.063Z,5.88
2022-09-30T01:40:49.813Z,5.90
2022-09-30T01:43:29.784Z,5.49
2022-09-30T01:46:00.268Z,5.18
2022-09-30T01:48:41.497Z,5.18
2022-09-30T01:51:19.121Z,5.45
2022-09-30T01:53:54.667Z,5.56
2022-09-30T01:56:28.341Z,5.21
2022-09-30T01:59:01.940Z,4.91
2022-09-30T02:01:33.431Z,4.69
2022-09-30T02:04:07.904Z,4.58
2022-09-30T02:06:40.431Z,4.58
2022-09-30T02:09:14.470Z,4.99
2022-09-30T02:11:43.576Z,5.09
2022-09-30T02:14:17.615Z,5.40
2022-09-30T02:16:51.954Z,5.03
2022-09-30T02:19:28.240Z,5.00
2022-09-30T02:22:01.022Z,4.75
2022-09-30T02:24:36.990Z,4.56
2022-09-30T02:27:08.041Z,4.80
2022-09-30T02:29:39.207Z,5.00
2022-09-30T02:32:10.607Z,5.01
2022-09-30T02:34:45.464Z,4.57
2022-09-30T02:37:18.993Z,4.54
2022-09-30T02:39:53.115Z,4.52
2022-09-30T02:42:24.241Z,4.52
2022-09-30T02:44:54.507Z,4.81
2022-09-30T02:47:30.059Z,5.06
2022-09-30T02:50:04.234Z,4.80
2022-09-30T02:52:44.119Z,4.67
2022-09-30T02:55:19.273Z,4.67
2022-09-30T02:57:58.750Z,4.54
2022-09-30T03:00:27.158Z,4.42
2022-09-30T03:03:00.931Z,4.22
2022-09-30T03:05:30.313Z,4.08
2022-09-30T03:07:58.191Z,4.01
2022-09-30T03:10:26.225Z,4.21
2022-09-30T03:13:11.794Z,4.17
2022-09-30T03:15:54.384Z,4.04
2022-09-30T03:18:45.608Z,4.46
2022-09-30T03:21:32.239Z,4.80
2022-09-30T03:24:31.874Z,4.47
2022-09-30T03:27:12.145Z,4.33
2022-09-30T03:29:47.691Z,3.98
2022-09-30T03:32:29.332Z,4.51
2022-09-30T03:35:19.559Z,4.30
2022-09-30T03:37:58.223Z,4.12
2022-09-30T03:40:33.868Z,4.50
2022-09-30T03:43:11.347Z,4.95
2022-09-30T03:45:46.574Z,5.10
2022-09-30T03:48:17.127Z,5.06
2022-09-30T03:50:46.255Z,4.95
2022-09-30T03:53:16.147Z,4.76
2022-09-30T03:55:52.030Z,4.44
2022-09-30T03:58:22.165Z,4.37
2022-09-30T04:00:51.811Z,4.29
2022-09-30T04:03:22.891Z,3.87
2022-09-30T04:05:51.071Z,3.89
2022-09-30T04:08:20.324Z,4.04
2022-09-30T04:10:48.268Z,3.90
2022-09-30T04:13:16.164Z,4.34
2022-09-30T04:15:43.974Z,4.68
2022-09-30T04:18:11.864Z,4.35
2022-09-30T04:20:40.286Z,4.01
2022-09-30T04:23:08.167Z,3.97
2022-09-30T04:25:37.245Z,3.80
2022-09-30T04:28:05.167Z,3.68
2022-09-30T04:30:33.789Z,4.41
2022-09-30T04:33:01.829Z,4.23
2022-09-30T04:35:30.335Z,4.10
2022-09-30T04:37:59.234Z,4.09
2022-09-30T04:40:31.211Z,4.42
2022-09-30T04:43:00.463Z,3.99
2022-09-30T04:45:28.368Z,4.20
2022-09-30T04:47:56.249Z,4.02
2022-09-30T04:50:24.183Z,3.96
2022-09-30T04:52:52.066Z,3.65
2022-09-30T04:55:19.913Z,4.05
2022-09-30T04:57:47.704Z,4.33
2022-09-30T05:00:16.999Z,4.34
2022-09-30T05:02:45.861Z,3.88
2022-09-30T05:05:14.116Z,3.67
2022-09-30T05:07:42.031Z,3.79
2022-09-30T05:10:12.955Z,3.57
2022-09-30T05:12:44.116Z,3.39
2022-09-30T05:15:12.479Z,3.72
2022-09-30T05:17:41.656Z,4.12
2022-09-30T05:20:11.683Z,4.09
2022-09-30T05:22:39.575Z,4.08
2022-09-30T05:25:08.241Z,3.81
2022-09-30T05:27:36.515Z,3.52
2022-09-30T05:30:06.583Z,3.42
2022-09-30T05:32:34.496Z,3.41
2022-09-30T05:35:04.587Z,3.60
2022-09-30T05:37:32.449Z,3.31
2022-09-30T05:40:01.191Z,3.37
2022-09-30T05:42:28.993Z,3.38
2022-09-30T05:44:56.875Z,3.43
2022-09-30T05:47:24.944Z,4.13
2022-09-30T05:49:56.008Z,4.11
2022-09-30T05:52:25.802Z,4.25
2022-09-30T05:54:54.246Z,4.31
2022-09-30T05:57:22.130Z,4.35
2022-09-30T05:59:50.969Z,4.36
2022-09-30T06:02:18.915Z,4.56
2022-09-30T06:04:46.978Z,4.75
2022-09-30T06:07:15.002Z,4.81
2022-09-30T06:09:46.058Z,4.90
2022-09-30T06:12:14.144Z,4.96
2022-09-30T06:14:41.902Z,5.11
2022-09-30T06:17:09.725Z,5.15
2022-09-30T06:19:37.637Z,5.36
2022-09-30T06:22:05.467Z,5.46
2022-09-30T06:24:33.348Z,5.56
2022-09-30T06:27:02.802Z,5.68
2022-09-30T06:29:30.757Z,5.74
2022-09-30T06:31:58.614Z,5.84
2022-09-30T06:34:26.679Z,5.96
2022-09-30T06:36:54.679Z,5.98
2022-09-30T06:39:22.686Z,6.19
2022-09-30T06:41:50.818Z,6.71
2022-09-30T06:44:20.232Z,7.14
2022-09-30T06:46:53.525Z,7.54
2022-09-30T06:49:22.316Z,8.56
2022-09-30T06:51:51.401Z,8.86
2022-09-30T06:54:20.622Z,9.75
2022-09-30T06:56:48.847Z,9.57
2022-09-30T06:59:17.948Z,9.34
2022-09-30T07:01:47.305Z,9.28
2022-09-30T07:04:15.494Z,9.13
2022-09-30T07:06:43.604Z,9.81
2022-09-30T07:09:12.795Z,9.89
2022-09-30T07:11:43.093Z,9.41
2022-09-30T07:14:13.360Z,9.59
2022-09-30T07:16:41.377Z,9.94
2022-09-30T07:19:12.293Z,9.95
2022-09-30T07:21:40.103Z,9.67
2022-09-30T07:24:09.285Z,10.08
2022-09-30T07:26:37.123Z,10.38
2022-09-30T07:29:07.157Z,10.64
2022-09-30T07:31:36.071Z,11.54
2022-09-30T07:34:07.209Z,10.86
2022-09-30T07:36:38.769Z,11.32
2022-09-30T07:39:10.780Z,10.92
2022-09-30T07:41:40.437Z,10.53
2022-09-30T07:44:12.196Z,9.80
2022-09-30T07:46:40.558Z,9.39
2022-09-30T07:49:14.463Z,9.37
2022-09-30T07:51:45.688Z,9.30
2022-09-30T07:54:16.439Z,9.47
2022-09-30T07:57:08.757Z,9.39
2022-09-30T07:59:35.003Z,9.44
2022-09-30T08:02:03.361Z,9.23
2022-09-30T08:04:31.169Z,9.47
2022-09-30T08:07:03.392Z,9.77
2022-09-30T08:09:35.092Z,9.93
2022-09-30T08:12:04.484Z,10.14
2022-09-30T08:14:32.647Z,10.25
2022-09-30T08:17:02.068Z,10.19
2022-09-30T08:19:33.583Z,10.16
2022-09-30T08:24:36.319Z,10.84
2022-09-30T08:27:04.374Z,11.15
2022-09-30T08:32:20.465Z,11.15
2022-09-30T08:34:48.391Z,11.64
2022-09-30T08:37:18.416Z,11.59
2022-09-30T08:39:48.336Z,11.49
2022-09-30T08:42:38.012Z,11.85
2022-09-30T08:45:17.081Z,11.21
2022-09-30T08:47:51.743Z,11.58
2022-09-30T08:50:27.995Z,11.59
2022-09-30T08:53:01.045Z,11.50
2022-09-30T08:55:36.786Z,12.08
2022-09-30T08:58:07.784Z,12.09
2022-09-30T09:00:36.813Z,12.07
2022-09-30T09:03:05.121Z,12.39
2022-09-30T09:05:42.352Z,12.22
2022-09-30T09:08:19.173Z,12.58
2022-09-30T09:10:54.534Z,13.64
2022-09-30T09:13:40.815Z,14.19
2022-09-30T09:16:15.370Z,14.98
2022-09-30T09:19:06.390Z,15.17
2022-09-30T09:21:52.491Z,15.97
2022-09-30T09:24:25.195Z,16.35
2022-09-30T09:26:55.099Z,17.19
2022-09-30T09:29:37.801Z,17.87
2022-09-30T09:32:14.194Z,17.39
2022-09-30T09:34:42.847Z,18.17
2022-09-30T09:37:22.005Z,18.42
2022-09-30T09:40:07.687Z,17.67
2022-09-30T09:42:47.565Z,18.62
2022-09-30T09:45:24.692Z,18.66
2022-09-30T09:47:53.060Z,17.99
2022-09-30T09:50:28.001Z,17.47
2022-09-30T09:53:16.470Z,17.66
2022-09-30T09:55:45.839Z,18.07
2022-09-30T09:58:17.392Z,18.69
2022-09-30T10:01:06.250Z,18.69
2022-09-30T10:03:37.502Z,19.39
2022-09-30T10:06:09.112Z,19.65
2022-09-30T10:08:40.828Z,20.04
2022-09-30T10:11:22.167Z,18.44
2022-09-30T10:13:51.951Z,18.88
2022-09-30T10:16:33.266Z,18.83
2022-09-30T10:19:04.905Z,19.73
2022-09-30T10:21:35.170Z,20.10
2022-09-30T10:24:27.787Z,19.99
2022-09-30T10:27:14.402Z,19.84
2022-09-30T10:29:49.528Z,19.31
2022-09-30T10:32:18.306Z,19.63
2022-09-30T10:34:48.668Z,18.96
2022-09-30T10:37:20.740Z,18.71
2022-09-30T10:39:57.201Z,18.35
2022-09-30T10:42:29.204Z,17.84
2022-09-30T10:44:58.810Z,18.05
2022-09-30T10:47:31.212Z,17.36
2022-09-30T10:50:05.387Z,17.36
2022-09-30T10:52:35.941Z,17.50
2022-09-30T10:55:14.658Z,17.77
2022-09-30T10:57:45.958Z,18.39
2022-09-30T11:00:17.290Z,18.91
2022-09-30T11:02:54.107Z,18.91
2022-09-30T11:05:24.958Z,18.03
2022-09-30T11:07:58.349Z,18.32
2022-09-30T11:10:35.791Z,19.24
2022-09-30T11:13:12.896Z,19.32
2022-09-30T11:16:01.754Z,19.79
2022-09-30T11:18:35.994Z,18.76
2022-09-30T11:21:12.167Z,19.70
2022-09-30T11:23:47.017Z,20.64
2022-09-30T11:26:25.352Z,19.06
2022-09-30T11:29:12.808Z,19.57
2022-09-30T11:31:48.994Z,20.05
2022-09-30T11:34:40.041Z,20.61
2022-09-30T11:37:16.452Z,20.52
2022-09-30T11:40:16.254Z,21.09
2022-09-30T11:42:53.214Z,20.40
2022-09-30T11:45:32.652Z,19.64
2022-09-30T11:48:16.619Z,20.93
2022-09-30T11:51:01.153Z,19.11
2022-09-30T11:53:39.829Z,18.29
2022-09-30T11:56:25.215Z,17.11
2022-09-30T11:58:56.596Z,17.72
2022-09-30T12:01:32.617Z,18.19
2022-09-30T12:04:06.581Z,17.99
2022-09-30T12:06:37.343Z,17.71
2022-09-30T12:09:16.165Z,18.63
2022-09-30T12:11:51.994Z,19.07
2022-09-30T12:14:26.951Z,18.59
2022-09-30T12:16:57.791Z,17.37
2022-09-30T12:19:30.418Z,17.44
2022-09-30T12:22:05.379Z,17.71
2022-09-30T12:24:38.058Z,18.36
2022-09-30T12:27:06.716Z,17.86
2022-09-30T12:29:56.270Z,18.01
2022-09-30T12:32:47.432Z,19.03
2022-09-30T12:35:38.958Z,19.45
2022-09-30T12:38:25.835Z,19.72
2022-09-30T12:41:13.916Z,18.17
2022-09-30T12:44:25.750Z,19.56
2022-09-30T12:47:09.153Z,19.78
2022-09-30T12:49:41.502Z,18.64
2022-09-30T12:52:15.656Z,18.90
2022-09-30T12:54:51.668Z,19.12
2022-09-30T12:57:24.495Z,19.35
2022-09-30T12:59:56.886Z,19.70
2022-09-30T13:02:36.323Z,19.98
2022-09-30T13:05:47.508Z,18.08
2022-09-30T13:08:50.091Z,17.94
2022-09-30T13:11:37.251Z,17.81
2022-09-30T13:14:26.191Z,17.27
2022-09-30T13:17:26.514Z,17.39
2022-09-30T13:19:58.660Z,17.41
2022-09-30T13:22:45.779Z,17.51
2022-09-30T13:25:16.511Z,17.20
2022-09-30T13:27:46.684Z,17.28
2022-09-30T13:30:41.644Z,17.89
2022-09-30T13:33:41.138Z,18.02
2022-09-30T13:36:18.686Z,18.37
2022-09-30T13:39:06.591Z,18.82
2022-09-30T13:41:39.108Z,18.90
2022-09-30T13:44:13.769Z,18.57
2022-09-30T13:46:49.973Z,17.73
2022-09-30T13:49:22.713Z,17.45
2022-09-30T13:51:50.850Z,17.06
2022-09-30T13:54:29.936Z,16.83
2022-09-30T13:56:58.099Z,16.74
2022-09-30T13:59:48.986Z,17.09
2022-09-30T14:02:57.304Z,17.36
2022-09-30T14:05:36.368Z,17.77
2022-09-30T14:08:32.859Z,17.06
2022-09-30T14:11:19.044Z,17.06
2022-09-30T14:14:00.372Z,17.86
2022-09-30T14:17:00.945Z,17.82
2022-09-30T14:19:47.009Z,17.18
2022-09-30T14:22:16.435Z,17.63
2022-09-30T14:24:44.464Z,19.13
2022-09-30T14:27:34.629Z,19.54
2022-09-30T14:30:07.723Z,18.15
2022-09-30T14:32:46.333Z,17.17
2022-09-30T14:35:19.313Z,16.82
2022-09-30T14:37:50.917Z,17.37
2022-09-30T14:40:21.611Z,18.27
2022-09-30T14:42:51.724Z,18.33
2022-09-30T14:45:26.838Z,18.01
2022-09-30T14:47:58.315Z,17.43
2022-09-30T14:50:31.159Z,17.18
2022-09-30T14:53:00.623Z,17.49
2022-09-30T14:55:31.183Z,17.23
2022-09-30T14:58:21.587Z,17.61
2022-09-30T15:00:58.046Z,18.22
2022-09-30T15:03:27.097Z,18.66
2022-09-30T15:05:55.427Z,19.12
2022-09-30T15:08:24.322Z,19.07
2022-09-30T15:10:54.993Z,18.83
2022-09-30T15:13:27.709Z,18.18
2022-09-30T15:15:55.628Z,17.61
2022-09-30T15:18:35.752Z,16.92
2022-09-30T15:21:10.923Z,16.55
2022-09-30T15:23:42.191Z,16.24
2022-09-30T15:26:13.117Z,16.11
2022-09-30T15:28:43.269Z,15.97
2022-09-30T15:31:23.382Z,15.92
2022-09-30T15:34:02.848Z,15.67
2022-09-30T15:36:31.055Z,15.58
2022-09-30T15:38:59.344Z,15.54
2022-09-30T15:41:27.509Z,15.37
2022-09-30T15:44:00.405Z,15.21
2022-09-30T15:46:31.068Z,15.16
2022-09-30T15:49:01.678Z,15.25
2022-09-30T15:51:39.210Z,15.14
2022-09-30T15:54:31.929Z,15.00
2022-09-30T15:57:19.176Z,14.90
2022-09-30T16:00:04.745Z,15.04
2022-09-30T16:02:32.728Z,15.04
2022-09-30T16:05:04.907Z,15.10
2022-09-30T16:07:33.598Z,15.09
2022-09-30T16:10:08.693Z,15.03
2022-09-30T16:12:37.085Z,14.91
2022-09-30T16:15:14.397Z,14.85
2022-09-30T16:17:52.432Z,14.73
2022-09-30T16:20:31.703Z,14.69
2022-09-30T16:23:15.537Z,14.40
2022-09-30T16:25:45.028Z,14.36
2022-09-30T16:28:16.815Z,14.39
2022-09-30T16:30:50.021Z,14.34
2022-09-30T16:33:18.538Z,14.32
2022-09-30T16:35:48.093Z,14.20
2022-09-30T16:38:19.963Z,14.18
2022-09-30T16:40:48.005Z,14.19
2022-09-30T16:43:17.078Z,14.08
2022-09-30T16:45:46.507Z,14.02
2022-09-30T16:48:16.784Z,14.06
2022-09-30T16:50:50.751Z,13.96
2022-09-30T16:53:19.000Z,13.85
2022-09-30T16:55:48.239Z,13.86
2022-09-30T16:58:17.382Z,13.66
2022-09-30T17:00:47.059Z,13.49
2022-09-30T17:03:17.245Z,13.52
2022-09-30T17:05:46.959Z,13.24
2022-09-30T17:08:17.104Z,13.22
2022-09-30T17:10:49.972Z,13.17
2022-09-30T17:13:19.157Z,13.07
2022-09-30T17:15:52.593Z,12.94
2022-09-30T17:18:20.804Z,12.81
2022-09-30T17:20:52.677Z,12.81
2022-09-30T17:23:22.118Z,12.68
2022-09-30T17:25:51.619Z,12.64
2022-09-30T17:28:19.621Z,12.56
2022-09-30T17:30:49.376Z,12.61
2022-09-30T17:33:19.749Z,12.51
2022-09-30T17:35:59.386Z,12.47
2022-09-30T17:38:27.946Z,12.35
2022-09-30T17:41:13.483Z,12.38
2022-09-30T17:43:41.533Z,12.29
2022-09-30T17:46:09.936Z,12.27
2022-09-30T17:48:39.492Z,12.24
2022-09-30T17:51:07.900Z,12.31
2022-09-30T17:53:38.155Z,12.16
2022-09-30T17:56:12.365Z,12.15
2022-09-30T17:58:40.572Z,12.16
2022-09-30T18:01:09.145Z,12.02
2022-09-30T18:03:37.549Z,12.08
2022-09-30T18:06:07.601Z,11.97
2022-09-30T18:08:35.825Z,11.93
2022-09-30T18:11:03.856Z,11.91
2022-09-30T18:13:31.926Z,11.73
2022-09-30T18:16:02.038Z,11.67
2022-09-30T18:18:30.146Z,11.87
2022-09-30T18:20:57.913Z,11.81
2022-09-30T18:23:27.440Z,11.85
2022-09-30T18:25:57.914Z,11.75
2022-09-30T18:28:26.581Z,11.81
2022-09-30T18:30:54.658Z,11.58
2022-09-30T18:33:22.577Z,11.48
2022-09-30T18:35:51.581Z,11.52
2022-09-30T18:38:19.703Z,11.55
2022-09-30T18:40:50.023Z,11.59
2022-09-30T18:43:17.986Z,11.46
2022-09-30T18:45:54.522Z,11.43
2022-09-30T18:48:22.478Z,11.59
2022-09-30T18:50:51.539Z,11.60
2022-09-30T18:53:20.581Z,11.59
2022-09-30T18:55:50.069Z,11.67
2022-09-30T18:58:17.885Z,11.65
2022-09-30T19:00:45.827Z,11.59
2022-09-30T19:03:16.125Z,11.56
2022-09-30T19:05:43.941Z,11.59
2022-09-30T19:08:12.895Z,11.54
2022-09-30T19:10:42.179Z,11.63
2022-09-30T19:13:11.395Z,11.59
2022-09-30T19:15:39.793Z,11.72
2022-09-30T19:18:08.071Z,11.58
2022-09-30T19:20:37.613Z,11.78
2022-09-30T19:23:08.346Z,11.79
2022-09-30T19:25:36.501Z,11.85
2022-09-30T19:28:04.571Z,11.72
2022-09-30T19:30:34.212Z,11.82
2022-09-30T19:33:08.043Z,11.61
2022-09-30T19:35:40.758Z,11.62
2022-09-30T19:38:09.290Z,11.75
2022-09-30T19:40:40.140Z,11.95
2022-09-30T19:43:08.268Z,11.95
2022-09-30T19:45:37.763Z,12.02
2022-09-30T19:48:08.504Z,12.09
2022-09-30T19:50:36.785Z,12.18
2022-09-30T19:53:07.110Z,12.19
2022-09-30T19:55:47.158Z,12.13
2022-09-30T19:58:17.222Z,12.16
2022-09-30T20:00:54.438Z,12.18
2022-09-30T20:03:22.405Z,12.28
2022-09-30T20:05:50.771Z,12.21
2022-09-30T20:08:19.539Z,12.25
2022-09-30T20:10:47.439Z,12.25
2022-09-30T20:13:15.367Z,12.28
2022-09-30T20:15:51.084Z,12.27
2022-09-30T20:18:20.969Z,12.28
2022-09-30T20:20:49.600Z,12.36
2022-09-30T20:23:19.301Z,12.35
2022-09-30T20:25:47.207Z,12.36
2022-09-30T20:28:15.485Z,12.33
2022-09-30T20:30:46.557Z,12.40
2022-09-30T20:33:20.823Z,12.43
2022-09-30T20:35:52.497Z,12.41
2022-09-30T20:38:24.678Z,12.24
2022-09-30T20:40:56.172Z,12.51
2022-09-30T20:43:26.770Z,12.53
2022-09-30T20:45:55.535Z,12.52
2022-09-30T20:48:23.534Z,12.49
2022-09-30T20:50:52.815Z,12.54
2022-09-30T20:53:20.733Z,12.43
2022-09-30T20:55:48.593Z,12.43
2022-09-30T20:58:16.407Z,12.59
2022-09-30T21:00:46.342Z,12.61
2022-09-30T21:03:15.324Z,12.72
2022-09-30T21:05:54.468Z,12.68
2022-09-30T21:08:23.155Z,12.74
2022-09-30T21:10:51.034Z,12.74
2022-09-30T21:13:19.071Z,12.55
2022-09-30T21:15:50.833Z,12.67
2022-09-30T21:18:19.546Z,12.58
2022-09-30T21:20:58.829Z,12.56
2022-09-30T21:23:27.190Z,12.88
2022-09-30T21:25:59.137Z,12.78
2022-09-30T21:28:27.977Z,12.89
2022-09-30T21:30:56.451Z,12.77
2022-09-30T21:33:24.989Z,12.79
2022-09-30T21:36:01.068Z,12.84
2022-09-30T21:38:29.689Z,12.81
2022-09-30T21:41:01.889Z,12.81
2022-09-30T21:43:31.637Z,12.89
2022-09-30T21:46:00.969Z,12.82
2022-09-30T21:48:29.886Z,12.90
2022-09-30T21:50:58.077Z,12.87
2022-09-30T21:53:27.845Z,12.91
2022-09-30T21:55:56.529Z,12.91
2022-09-30T21:58:26.256Z,12.84
2022-09-30T22:00:57.825Z,12.84
2022-09-30T22:03:26.301Z,12.95
2022-09-30T22:05:56.524Z,13.02
2022-09-30T22:08:24.834Z,12.99
2022-09-30T22:10:54.633Z,12.86
2022-09-30T22:13:22.377Z,13.02
2022-09-30T22:15:50.565Z,12.97
2022-09-30T22:18:24.434Z,12.94
2022-09-30T22:20:52.522Z,12.91
2022-09-30T22:23:20.615Z,12.87
2022-09-30T22:25:48.644Z,12.65
2022-09-30T22:28:20.164Z,12.63
2022-09-30T22:30:56.924Z,12.37
2022-09-30T22:33:42.887Z,12.38
2022-09-30T22:36:29.310Z,12.27
2022-09-30T22:38:57.345Z,12.20
2022-09-30T22:41:25.389Z,12.17
2022-09-30T22:43:54.748Z,12.04
2022-09-30T22:46:22.869Z,11.94
2022-09-30T22:48:50.691Z,11.74
2022-09-30T22:51:18.671Z,11.52
2022-09-30T22:53:46.415Z,11.42
2022-09-30T22:56:14.309Z,11.24
2022-09-30T22:58:42.139Z,11.15
2022-09-30T23:01:11.767Z,11.01
2022-09-30T23:03:40.431Z,10.95
2022-09-30T23:06:08.460Z,10.92
2022-09-30T23:08:41.605Z,10.85
2022-09-30T23:11:10.773Z,10.78
2022-09-30T23:13:40.038Z,10.67
2022-09-30T23:16:12.590Z,10.71
2022-09-30T23:18:41.364Z,10.64
2022-09-30T23:21:19.513Z,10.61
2022-09-30T23:23:49.292Z,10.63
2022-09-30T23:26:19.481Z,10.61
2022-09-30T23:28:48.318Z,10.58
2022-09-30T23:31:18.335Z,10.46
2022-09-30T23:33:48.253Z,10.58
2022-09-30T23:36:17.655Z,10.45
2022-09-30T23:38:45.751Z,10.50
2022-09-30T23:41:14.089Z,10.52
2022-09-30T23:43:48.167Z,10.50
2022-09-30T23:46:19.801Z,10.45
2022-09-30T23:48:47.615Z,10.45
2022-09-30T23:51:15.990Z,10.45
2022-09-30T23:53:43.686Z,10.47
2022-09-30T23:56:13.585Z,10.42
2022-09-30T23:58:41.596Z,10.42
